Time,TemperatureF,DewpointF,PressureIn,WindDirection,WindDirectionDegrees,WindSpeedMPH,WindSpeedGustMPH,Humidity,HourlyPrecipIn,Conditions,Clouds,dailyrainin,SoftwareType,DateUTC
2013-04-12 00:00:00,70.3,54.8,29.65,WSW,241,11.5,11.5,58,0.00,CLR,,0.00,WeatherDisplay:10.37,2013-04-12 04:00:00,
2013-04-12 00:05:00,70.3,56.7,29.65,South,181,8.6,8.6,62,0.00,CLR,,0.00,WeatherDisplay:10.37,2013-04-12 04:05:00,
2013-04-12 00:10:00,70.3,56.7,29.65,SSE,160,10.4,10.4,62,0.00,CLR,,0.00,WeatherDisplay:10.37,2013-04-12 04:10:00,
2013-04-12 00:15:00,70.2,57.0,29.65,South,176,8.1,8.1,63,0.00,CLR,,0.00,WeatherDisplay:10.37,2013-04-12 04:15:00,
2013-04-12 00:20:00,70.0,56.8,29.65,SSE,158,13.8,13.8,63,0.00,CLR,,0.00,WeatherDisplay:10.37,2013-04-12 04:20:00,
2013-04-12 00:25:00,70.0,56.8,29.65,SSE,160,9.2,9.2,63,0.00,CLR,,0.00,WeatherDisplay:10.37,2013-04-12 04:25:00,
2013-04-12 00:30:00,70.0,56.8,29.65,SW,232,12.7,12.7,63,0.00,CLR,,0.00,WeatherDisplay:10.37,2013-04-12 04:30:00,
2013-04-12 00:35:00,70.1,56.9,29.65,SW,217,13.8,13.8,63,0.00,CLR,,0.00,WeatherDisplay:10.37,2013-04-12 04:35:00,
2013-04-12 00:40:00,70.1,56.5,29.65,West,267,9.2,9.2,62,0.00,CLR,,0.00,WeatherDisplay:10.37,2013-04-12 04:40:00,
2013-04-12 00:46:00,70.0,57.3,29.65,SSW,208,9.2,9.2,64,0.00,CLR,,0.00,WeatherDisplay:10.37,2013-04-12 04:46:00,
2013-04-12 00:50:00,70.0,57.3,29.65,South,176,10.4,10.4,64,0.00,CLR,,0.00,WeatherDisplay:10.37,2013-04-12 04:50:00,
2013-04-12 00:56:00,70.0,57.3,29.65,SE,137,10.4,10.4,64,0.00,CLR,,0.00,WeatherDisplay:10.37,2013-04-12 04:56:00,
2013-04-12 01:01:00,70.1,55.1,29.65,SW,230,9.2,9.2,59,0.00,CLR,,0.00,WeatherDisplay:10.37,2013-04-12 05:01:00,
2013-04-12 01:06:00,70.0,54.5,29.65,SSW,209,9.2,9.2,58,0.00,CLR,,0.00,WeatherDisplay:10.37,2013-04-12 05:06:00,
2013-04-12 01:11:00,69.9,54.4,29.65,SSW,196,5.8,5.8,58,0.00,CLR,,0.00,WeatherDisplay:10.37,2013-04-12 05:11:00,
2013-04-12 01:16:00,69.8,57.5,29.65,SE,128,8.1,8.1,65,0.00,CLR,,0.00,WeatherDisplay:10.37,2013-04-12 05:16:00,
2013-04-12 01:21:00,69.8,57.5,29.65,SSW,199,9.2,9.2,65,0.00,CLR,,0.00,WeatherDisplay:10.37,2013-04-12 05:21:00,
2013-04-12 01:26:00,69.8,54.8,29.64,SSW,205,9.2,9.2,59,0.00,CLR,,0.00,WeatherDisplay:10.37,2013-04-12 05:26:00,
2013-04-12 01:31:00,69.9,57.6,29.64,SSW,196,8.1,8.1,65,0.00,CLR,,0.00,WeatherDisplay:10.37,2013-04-12 05:31:00,
2013-04-12 01:36:00,69.9,57.6,29.64,South,184,8.1,8.1,65,0.00,CLR,,0.00,WeatherDisplay:10.37,2013-04-12 05:36:00,
2013-04-12 01:41:00,69.9,57.6,29.63,South,184,11.5,11.5,65,0.00,CLR,,0.00,WeatherDisplay:10.37,2013-04-12 05:41:00,
2013-04-12 01:46:00,70.0,57.7,29.63,SW,232,6.9,6.9,65,0.00,CLR,,0.00,WeatherDisplay:10.37,2013-04-12 05:46:00,
2013-04-12 01:51:00,70.0,57.7,29.63,South,186,8.1,8.1,65,0.00,CLR,,0.00,WeatherDisplay:10.37,2013-04-12 05:51:00,
2013-04-12 01:56:00,70.1,58.2,29.63,SSW,196,8.1,8.1,66,0.00,CLR,,0.00,WeatherDisplay:10.37,2013-04-12 05:56:00,
2013-04-12 02:01:00,70.1,58.2,29.62,SSE,155,11.5,11.5,66,0.00,CLR,,0.00,WeatherDisplay:10.37,2013-04-12 06:01:00,
2013-04-12 02:06:00,70.3,58.4,29.62,SW,227,8.7,8.7,66,0.00,CLR,,0.00,WeatherDisplay:10.37,2013-04-12 06:06:00,
2013-04-12 02:11:00,70.4,58.5,29.62,SSW,195,9.2,9.2,66,0.00,CLR,,0.00,WeatherDisplay:10.37,2013-04-12 06:11:00,
2013-04-12 02:16:00,70.5,58.6,29.62,SW,227,9.2,9.2,66,0.00,CLR,,0.00,WeatherDisplay:10.37,2013-04-12 06:16:00,
2013-04-12 02:21:00,70.5,58.6,29.62,South,188,6.9,6.9,66,0.00,CLR,,0.00,WeatherDisplay:10.37,2013-04-12 06:21:00,
2013-04-12 02:26:00,70.5,59.0,29.62,South,181,9.2,9.2,67,0.00,CLR,,0.00,WeatherDisplay:10.37,2013-04-12 06:26:00,
2013-04-12 02:31:00,70.2,59.6,29.61,SW,223,9.3,9.3,69,0.00,CLR,,0.00,WeatherDisplay:10.37,2013-04-12 06:31:00,
2013-04-12 02:36:00,69.9,59.3,29.61,West,270,9.2,9.2,69,0.00,CLR,,0.00,WeatherDisplay:10.37,2013-04-12 06:36:00,
2013-04-12 02:41:00,69.6,59.4,29.60,SW,215,10.4,10.4,70,0.00,CLR,,0.00,WeatherDisplay:10.37,2013-04-12 06:41:00,
2013-04-12 02:46:00,69.5,59.3,29.60,SW,219,6.9,6.9,70,0.00,CLR,,0.00,WeatherDisplay:10.37,2013-04-12 06:46:00,
2013-04-12 02:51:00,69.5,59.3,29.60,South,184,7.0,7.0,70,0.00,CLR,,0.00,WeatherDisplay:10.37,2013-04-12 06:51:00,
2013-04-12 02:56:00,69.4,59.2,29.60,SSW,206,6.0,6.0,70,0.00,CLR,,0.00,WeatherDisplay:10.37,2013-04-12 06:56:00,
2013-04-12 03:01:00,69.3,59.5,29.60,South,175,11.5,11.5,71,0.00,CLR,,0.00,WeatherDisplay:10.37,2013-04-12 07:01:00,
2013-04-12 03:06:00,69.2,59.8,29.59,SSW,198,6.9,6.9,72,0.00,CLR,,0.00,WeatherDisplay:10.37,2013-04-12 07:06:00,
2013-04-12 03:11:00,68.8,60.2,29.59,SW,217,5.8,5.8,74,0.00,CLR,,0.00,WeatherDisplay:10.37,2013-04-12 07:11:00,
2013-04-12 03:16:00,68.5,59.9,29.59,South,182,5.8,5.8,74,0.00,CLR,,0.00,WeatherDisplay:10.37,2013-04-12 07:16:00,
2013-04-12 03:21:00,68.4,60.2,29.58,SW,222,6.9,6.9,75,0.00,CLR,,0.00,WeatherDisplay:10.37,2013-04-12 07:21:00,
2013-04-12 03:26:00,68.3,60.4,29.58,South,172,5.8,5.8,76,0.00,CLR,,0.00,WeatherDisplay:10.37,2013-04-12 07:26:00,
2013-04-12 03:31:00,68.2,60.3,29.57,SSE,152,5.8,5.8,76,0.00,CLR,,0.00,WeatherDisplay:10.37,2013-04-12 07:31:00,
2013-04-12 03:36:00,68.1,60.2,29.57,SSW,208,3.5,3.5,76,0.00,CLR,,0.00,WeatherDisplay:10.37,2013-04-12 07:36:00,
2013-04-12 03:41:00,68.0,60.2,29.57,SSW,205,3.5,3.5,76,0.00,CLR,,0.00,WeatherDisplay:10.37,2013-04-12 07:41:00,
2013-04-12 03:47:00,68.0,60.2,29.57,SSE,152,0.0,0.0,76,0.00,CLR,,0.00,WeatherDisplay:10.37,2013-04-12 07:47:00,
2013-04-12 03:52:00,67.9,60.4,29.56,SSE,161,0.0,0.0,77,0.00,CLR,,0.00,WeatherDisplay:10.37,2013-04-12 07:52:00,
2013-04-12 03:57:00,67.6,60.5,29.56,SSE,161,0.0,0.0,78,0.00,CLR,,0.00,WeatherDisplay:10.37,2013-04-12 07:57:00,
2013-04-12 04:02:00,67.4,61.0,29.56,SE,143,4.6,4.6,80,0.00,CLR,,0.00,WeatherDisplay:10.37,2013-04-12 08:02:00,
2013-04-12 04:07:00,66.9,61.2,29.56,SSW,199,5.8,5.8,82,0.00,CLR,,0.00,WeatherDisplay:10.37,2013-04-12 08:07:00,
2013-04-12 04:12:00,66.5,60.8,29.56,SSW,205,4.6,4.6,82,0.00,CLR,,0.00,WeatherDisplay:10.37,2013-04-12 08:12:00,
2013-04-12 04:17:00,66.3,60.6,29.55,SSW,213,5.8,5.8,82,0.00,CLR,,0.00,WeatherDisplay:10.37,2013-04-12 08:17:00,
2013-04-12 04:22:00,66.2,60.5,29.55,SW,216,4.1,4.1,82,0.00,CLR,,0.00,WeatherDisplay:10.37,2013-04-12 08:22:00,
2013-04-12 04:27:00,66.1,60.4,29.55,South,188,5.8,5.8,82,0.00,CLR,,0.00,WeatherDisplay:10.37,2013-04-12 08:27:00,
2013-04-12 04:32:00,66.2,60.9,29.55,South,178,9.2,9.2,83,0.00,CLR,,0.00,WeatherDisplay:10.37,2013-04-12 08:32:00,
2013-04-12 04:37:00,66.1,60.8,29.55,South,188,4.7,4.7,83,0.00,CLR,,0.00,WeatherDisplay:10.37,2013-04-12 08:37:00,
2013-04-12 04:42:00,66.1,60.8,29.55,WSW,237,5.8,5.8,83,0.00,CLR,,0.00,WeatherDisplay:10.37,2013-04-12 08:42:00,
2013-04-12 04:47:00,66.3,61.0,29.55,South,178,4.3,4.3,83,0.00,CLR,,0.00,WeatherDisplay:10.37,2013-04-12 08:47:00,
2013-04-12 04:52:00,66.3,61.0,29.55,WSW,240,7.0,7.0,83,0.00,CLR,,0.00,WeatherDisplay:10.37,2013-04-12 08:52:00,
2013-04-12 04:57:00,66.5,61.5,29.54,South,174,8.1,8.1,84,0.00,CLR,,0.00,WeatherDisplay:10.37,2013-04-12 08:57:00,
2013-04-12 05:02:00,66.4,61.8,29.53,South,186,9.2,9.2,85,0.01,RA,,0.01,WeatherDisplay:10.37,2013-04-12 09:02:00,
2013-04-12 05:07:00,66.4,61.8,29.53,South,188,8.1,8.1,85,0.01,RA,,0.01,WeatherDisplay:10.37,2013-04-12 09:07:00,
2013-04-12 05:12:00,66.4,61.8,29.52,SSW,193,3.5,0.0,85,0.02,RA,,0.02,WeatherDisplay:10.37,2013-04-12 09:12:00,
2013-04-12 05:17:00,66.1,61.8,29.53,NW,326,5.0,5.0,86,0.03,RA,,0.03,WeatherDisplay:10.37,2013-04-12 09:17:00,
2013-04-12 05:22:00,64.2,60.6,29.57,West,275,11.5,11.5,88,0.20,RA,,0.24,WeatherDisplay:10.37,2013-04-12 09:22:00,
2013-04-12 05:27:00,61.4,59.1,29.56,WNW,295,8.1,8.1,92,0.42,RA,,0.42,WeatherDisplay:10.37,2013-04-12 09:27:00,
2013-04-12 05:32:00,61.1,59.7,29.56,SW,227,4.6,4.6,95,0.42,RA,,0.43,WeatherDisplay:10.37,2013-04-12 09:32:00,
2013-04-12 05:37:00,60.9,58.6,29.57,SSW,198,6.9,6.9,92,0.43,RA,,0.44,WeatherDisplay:10.37,2013-04-12 09:37:00,
2013-04-12 05:43:00,60.5,57.9,29.58,WSW,241,5.0,5.0,91,0.44,RA,,0.45,WeatherDisplay:10.37,2013-04-12 09:43:00,
2013-04-12 05:48:00,60.2,57.9,29.58,WSW,244,8.1,8.1,92,0.46,RA,,0.46,WeatherDisplay:10.37,2013-04-12 09:48:00,
2013-04-12 05:53:00,59.9,57.6,29.59,WSW,246,5.8,5.8,92,0.47,RA,,0.47,WeatherDisplay:10.37,2013-04-12 09:53:00,
2013-04-12 05:58:00,59.8,58.1,29.59,South,172,3.5,3.5,94,0.47,RA,,0.48,WeatherDisplay:10.37,2013-04-12 09:58:00,
2013-04-12 06:03:00,60.0,58.6,29.58,South,176,2.3,2.3,95,0.49,RA,,0.50,WeatherDisplay:10.37,2013-04-12 10:03:00,
2013-04-12 06:08:00,60.2,58.8,29.58,SSW,199,4.6,4.6,95,0.50,RA,,0.51,WeatherDisplay:10.37,2013-04-12 10:08:00,
2013-04-12 06:13:00,60.3,58.6,29.58,SSW,198,4.6,4.6,94,0.50,RA,,0.52,WeatherDisplay:10.37,2013-04-12 10:13:00,
2013-04-12 06:18:00,60.3,58.6,29.59,SSW,200,4.6,4.6,94,0.49,RA,,0.52,WeatherDisplay:10.37,2013-04-12 10:18:00,
2013-04-12 06:23:00,60.3,58.9,29.59,SE,134,6.9,6.9,95,0.26,CLR,,0.53,WeatherDisplay:10.37,2013-04-12 10:23:00,
2013-04-12 06:28:00,60.4,58.7,29.59,SSW,193,3.5,3.5,94,0.11,RA,,0.53,WeatherDisplay:10.37,2013-04-12 10:28:00,
2013-04-12 06:33:00,60.3,58.6,29.60,SW,230,11.5,11.5,94,0.10,RA,,0.54,WeatherDisplay:10.37,2013-04-12 10:33:00,
2013-04-12 06:38:00,60.3,58.9,29.60,SSW,200,8.1,8.1,95,0.11,RA,,0.55,WeatherDisplay:10.37,2013-04-12 10:38:00,
2013-04-12 06:43:00,60.1,58.7,29.59,SSW,209,5.8,5.8,95,0.11,RA,,0.57,WeatherDisplay:10.37,2013-04-12 10:43:00,
2013-04-12 06:48:00,60.0,58.6,29.59,South,186,3.7,3.7,95,0.12,RA,,0.58,WeatherDisplay:10.37,2013-04-12 10:48:00,
2013-04-12 06:53:00,60.0,58.6,29.58,South,189,3.0,3.0,95,0.13,RA,,0.60,WeatherDisplay:10.37,2013-04-12 10:53:00,
2013-04-12 06:58:00,59.9,58.5,29.58,SSW,200,3.5,3.5,95,0.14,RA,,0.63,WeatherDisplay:10.37,2013-04-12 10:58:00,
2013-04-12 07:03:00,59.8,58.4,29.57,SSE,157,5.8,5.8,95,0.15,RA,,0.65,WeatherDisplay:10.37,2013-04-12 11:03:00,
2013-04-12 07:08:00,59.7,58.6,29.57,ESE,109,0.0,0.0,96,0.16,RA,,0.67,WeatherDisplay:10.37,2013-04-12 11:08:00,
2013-04-12 07:13:00,59.6,58.5,29.57,WSW,241,0.0,0.0,96,0.16,RA,,0.68,WeatherDisplay:10.37,2013-04-12 11:13:00,
2013-04-12 07:18:00,59.5,58.4,29.57,WSW,241,0.0,0.0,96,0.16,RA,,0.68,WeatherDisplay:10.37,2013-04-12 11:18:00,
2013-04-12 07:23:00,59.4,58.3,29.57,South,186,2.4,2.4,96,0.16,,,0.68,WeatherDisplay:10.37,2013-04-12 11:23:00,
2013-04-12 07:28:00,59.3,58.2,29.57,SE,137,0.0,0.0,96,0.15,CLR,,0.68,WeatherDisplay:10.37,2013-04-12 11:28:00,
2013-04-12 07:33:00,59.3,58.2,29.57,SE,137,0.0,0.0,96,0.15,CLR,,0.68,WeatherDisplay:10.37,2013-04-12 11:33:00,
2013-04-12 07:38:00,59.3,58.2,29.57,SSE,160,0.0,0.0,96,0.13,CLR,,0.68,WeatherDisplay:10.37,2013-04-12 11:38:00,
2013-04-12 07:44:00,59.2,58.1,29.58,SSE,160,0.0,0.0,96,0.12,CLR,,0.68,WeatherDisplay:10.37,2013-04-12 11:44:00,
2013-04-12 07:49:00,59.2,58.1,29.58,SSE,160,0.0,0.0,96,0.10,CLR,,0.68,WeatherDisplay:10.37,2013-04-12 11:49:00,
2013-04-12 07:54:00,59.2,58.1,29.58,West,261,2.3,0.0,96,0.08,CLR,,0.68,WeatherDisplay:10.37,2013-04-12 11:54:00,
2013-04-12 07:59:00,59.4,58.3,29.58,West,261,0.0,0.0,96,0.05,CLR,,0.68,WeatherDisplay:10.37,2013-04-12 11:59:00,
2013-04-12 08:04:00,59.4,58.3,29.59,West,261,0.0,0.0,96,0.03,CLR,,0.68,WeatherDisplay:10.37,2013-04-12 12:04:00,
2013-04-12 08:09:00,59.3,58.2,29.58,West,261,0.0,0.0,96,0.01,CLR,,0.68,WeatherDisplay:10.37,2013-04-12 12:09:00,
2013-04-12 08:14:00,59.3,58.2,29.58,West,261,0.0,0.0,96,0.00,CLR,,0.68,WeatherDisplay:10.37,2013-04-12 12:14:00,
2013-04-12 08:19:00,59.4,58.3,29.58,West,261,0.0,0.0,96,0.00,CLR,,0.68,WeatherDisplay:10.37,2013-04-12 12:19:00,
2013-04-12 08:24:00,59.3,58.2,29.58,West,261,0.0,0.0,96,0.00,CLR,,0.68,WeatherDisplay:10.37,2013-04-12 12:24:00,
2013-04-12 08:29:00,59.3,58.2,29.58,West,261,0.0,0.0,96,0.00,CLR,,0.68,WeatherDisplay:10.37,2013-04-12 12:29:00,
2013-04-12 08:34:00,59.4,58.3,29.58,NW,313,2.3,2.3,96,0.00,CLR,,0.68,WeatherDisplay:10.37,2013-04-12 12:34:00,
2013-04-12 08:39:00,59.9,58.8,29.58,WNW,285,0.0,0.0,96,0.00,CLR,,0.68,WeatherDisplay:10.37,2013-04-12 12:39:00,
2013-04-12 08:44:00,59.9,58.8,29.58,WSW,250,3.5,3.5,96,0.00,CLR,,0.68,WeatherDisplay:10.37,2013-04-12 12:44:00,
2013-04-12 08:49:00,60.1,59.0,29.58,West,272,1.4,1.4,96,0.00,CLR,,0.68,WeatherDisplay:10.37,2013-04-12 12:49:00,
2013-04-12 08:54:00,60.3,59.2,29.59,SW,216,2.3,2.3,96,0.00,CLR,,0.68,WeatherDisplay:10.37,2013-04-12 12:54:00,
2013-04-12 08:59:00,60.4,59.0,29.58,NW,319,4.6,4.6,95,0.00,CLR,,0.68,WeatherDisplay:10.37,2013-04-12 12:59:00,
2013-04-12 09:04:00,60.5,59.1,29.59,West,271,3.5,3.5,95,0.00,CLR,,0.68,WeatherDisplay:10.37,2013-04-12 13:04:00,
2013-04-12 09:09:00,60.5,59.1,29.59,SSW,200,3.5,3.5,95,0.00,CLR,,0.68,WeatherDisplay:10.37,2013-04-12 13:09:00,
2013-04-12 09:14:00,60.7,59.3,29.59,West,281,4.6,4.6,95,0.00,CLR,,0.68,WeatherDisplay:10.37,2013-04-12 13:14:00,
2013-04-12 09:19:00,60.8,59.4,29.59,SSW,196,2.3,2.3,95,0.00,CLR,,0.68,WeatherDisplay:10.37,2013-04-12 13:19:00,
2013-04-12 09:24:00,61.0,59.6,29.58,NW,304,2.3,2.3,95,0.00,CLR,,0.68,WeatherDisplay:10.37,2013-04-12 13:24:00,
2013-04-12 09:29:00,61.4,60.0,29.59,SW,230,6.9,6.9,95,0.00,CLR,,0.68,WeatherDisplay:10.37,2013-04-12 13:29:00,
2013-04-12 09:34:00,61.6,59.9,29.59,SW,215,5.8,5.8,94,0.00,CLR,,0.68,WeatherDisplay:10.37,2013-04-12 13:34:00,
2013-04-12 09:39:00,61.9,60.2,29.58,SW,236,4.6,4.6,94,0.00,CLR,,0.68,WeatherDisplay:10.37,2013-04-12 13:39:00,
2013-04-12 09:44:00,62.3,60.2,29.58,SSW,213,8.2,8.2,93,0.00,CLR,,0.68,WeatherDisplay:10.37,2013-04-12 13:44:00,
2013-04-12 09:49:00,62.5,59.8,29.58,WSW,244,6.2,6.2,91,0.00,CLR,,0.68,WeatherDisplay:10.37,2013-04-12 13:49:00,
2013-04-12 09:54:00,62.6,59.9,29.58,SW,232,6.9,6.9,91,0.00,CLR,,0.68,WeatherDisplay:10.37,2013-04-12 13:54:00,
2013-04-12 09:59:00,62.7,59.7,29.58,WNW,298,6.9,6.9,90,0.00,CLR,,0.68,WeatherDisplay:10.37,2013-04-12 13:59:00,
2013-04-12 10:04:00,62.9,60.2,29.58,West,270,6.9,6.9,91,0.00,CLR,,0.68,WeatherDisplay:10.37,2013-04-12 14:04:00,
2013-04-12 10:09:00,63.0,60.0,29.58,SW,226,6.9,6.9,90,0.00,CLR,,0.68,WeatherDisplay:10.37,2013-04-12 14:09:00,
2013-04-12 10:14:00,63.2,59.9,29.58,WSW,239,9.2,9.2,89,0.00,CLR,,0.68,WeatherDisplay:10.37,2013-04-12 14:14:00,
2013-04-12 10:19:00,63.6,60.6,29.58,WSW,256,8.1,8.1,90,0.00,CLR,,0.68,WeatherDisplay:10.37,2013-04-12 14:19:00,
2013-04-12 10:24:00,63.6,60.0,29.58,West,275,6.9,6.9,88,0.00,CLR,,0.68,WeatherDisplay:10.37,2013-04-12 14:24:00,
2013-04-12 10:29:00,63.7,60.4,29.58,West,270,5.8,5.8,89,0.00,CLR,,0.68,WeatherDisplay:10.37,2013-04-12 14:29:00,
2013-04-12 10:34:00,63.9,60.3,29.58,West,260,10.4,10.4,88,0.00,CLR,,0.68,WeatherDisplay:10.37,2013-04-12 14:34:00,
2013-04-12 10:39:00,64.6,61.0,29.57,SSW,205,9.2,9.2,88,0.00,CLR,,0.68,WeatherDisplay:10.37,2013-04-12 14:39:00,
2013-04-12 10:44:00,65.0,60.0,29.58,SSW,213,10.4,10.4,84,0.00,CLR,,0.68,WeatherDisplay:10.37,2013-04-12 14:44:00,
2013-04-12 10:49:00,65.3,59.7,29.58,West,263,10.4,10.4,82,0.00,CLR,,0.68,WeatherDisplay:10.37,2013-04-12 14:49:00,
2013-04-12 10:54:00,65.2,60.2,29.58,South,169,11.5,11.5,84,0.00,CLR,,0.68,WeatherDisplay:10.37,2013-04-12 14:54:00,
2013-04-12 10:59:00,65.0,59.7,29.58,SW,236,10.4,10.4,83,0.00,CLR,,0.68,WeatherDisplay:10.37,2013-04-12 14:59:00,
2013-04-12 11:04:00,65.3,61.0,29.57,WSW,247,6.9,6.9,86,0.00,CLR,,0.68,WeatherDisplay:10.37,2013-04-12 15:04:00,
2013-04-12 11:09:00,65.8,59.8,29.58,WSW,237,12.7,12.7,81,0.00,CLR,,0.68,WeatherDisplay:10.37,2013-04-12 15:09:00,
2013-04-12 11:14:00,65.9,59.9,29.58,West,280,9.2,9.2,81,0.00,CLR,,0.68,WeatherDisplay:10.37,2013-04-12 15:14:00,
2013-04-12 11:19:00,66.0,60.0,29.58,WSW,248,10.4,10.4,81,0.00,CLR,,0.68,WeatherDisplay:10.37,2013-04-12 15:19:00,
2013-04-12 11:24:00,66.2,59.8,29.58,SSW,205,9.2,9.2,80,0.00,CLR,,0.68,WeatherDisplay:10.37,2013-04-12 15:24:00,
2013-04-12 11:29:00,66.9,60.9,29.58,WSW,241,11.5,11.5,81,0.00,CLR,,0.68,WeatherDisplay:10.37,2013-04-12 15:29:00,
2013-04-12 11:34:00,67.3,60.9,29.58,WSW,247,10.4,10.4,80,0.00,CLR,,0.68,WeatherDisplay:10.37,2013-04-12 15:34:00,
2013-04-12 11:39:00,67.7,60.6,29.58,South,169,9.8,9.8,78,0.00,CLR,,0.68,WeatherDisplay:10.37,2013-04-12 15:39:00,
2013-04-12 11:44:00,67.7,60.2,29.57,NW,309,8.1,8.1,77,0.00,CLR,,0.68,WeatherDisplay:10.37,2013-04-12 15:44:00,
2013-04-12 11:49:00,67.8,60.3,29.58,WNW,284,8.1,8.1,77,0.00,CLR,,0.68,WeatherDisplay:10.37,2013-04-12 15:49:00,
2013-04-12 11:54:00,68.2,61.4,29.57,WSW,257,8.9,8.9,79,0.00,CLR,,0.68,WeatherDisplay:10.37,2013-04-12 15:54:00,
2013-04-12 11:59:00,68.6,61.1,29.57,WSW,250,10.4,10.4,77,0.00,CLR,,0.68,WeatherDisplay:10.37,2013-04-12 15:59:00,
2013-04-12 12:04:00,69.0,61.1,29.57,SW,216,10.4,10.4,76,0.00,CLR,,0.68,WeatherDisplay:10.37,2013-04-12 16:04:00,
2013-04-12 12:09:00,69.5,60.8,29.57,WSW,244,8.1,8.1,74,0.00,CLR,,0.68,WeatherDisplay:10.37,2013-04-12 16:09:00,
2013-04-12 12:14:00,69.5,62.0,29.57,West,271,8.3,8.3,77,0.00,CLR,,0.68,WeatherDisplay:10.37,2013-04-12 16:14:00,
2013-04-12 12:19:00,69.9,61.2,29.57,West,261,8.1,8.1,74,0.00,CLR,,0.68,WeatherDisplay:10.37,2013-04-12 16:19:00,
2013-04-12 12:24:00,69.8,61.1,29.57,SSW,203,9.2,9.2,74,0.00,CLR,,0.68,WeatherDisplay:10.37,2013-04-12 16:24:00,
2013-04-12 12:29:00,69.3,60.3,29.57,WSW,241,10.4,10.4,73,0.00,CLR,,0.68,WeatherDisplay:10.37,2013-04-12 16:29:00,
2013-04-12 12:34:00,68.4,58.2,29.57,WNW,292,9.2,9.2,70,0.00,CLR,,0.68,WeatherDisplay:10.37,2013-04-12 16:34:00,
2013-04-12 12:39:00,68.1,57.5,29.57,West,265,5.8,5.8,69,0.00,CLR,,0.68,WeatherDisplay:10.37,2013-04-12 16:39:00,
2013-04-12 12:44:00,67.5,56.2,29.57,WSW,237,4.6,4.6,67,0.00,CLR,,0.68,WeatherDisplay:10.37,2013-04-12 16:44:00,
2013-04-12 12:49:00,67.6,57.1,29.57,West,260,9.2,9.2,69,0.00,CLR,,0.68,WeatherDisplay:10.37,2013-04-12 16:49:00,
2013-04-12 12:54:00,67.7,57.6,29.57,NW,318,6.3,6.3,70,0.00,CLR,,0.68,WeatherDisplay:10.37,2013-04-12 16:54:00,
2013-04-12 12:59:00,68.2,57.6,29.56,West,268,6.9,6.9,69,0.00,CLR,,0.68,WeatherDisplay:10.37,2013-04-12 16:59:00,
2013-04-12 13:05:00,68.6,55.9,29.56,WNW,287,6.9,6.9,64,0.00,CLR,,0.68,WeatherDisplay:10.37,2013-04-12 17:05:00,
2013-04-12 13:10:00,69.1,56.8,29.57,WNW,294,11.5,11.5,65,0.00,CLR,,0.68,WeatherDisplay:10.37,2013-04-12 17:10:00,
2013-04-12 13:15:00,69.1,55.5,29.56,WSW,254,6.9,6.9,62,0.00,CLR,,0.68,WeatherDisplay:10.37,2013-04-12 17:15:00,
2013-04-12 13:20:00,69.0,54.5,29.56,West,274,8.1,8.1,60,0.00,CLR,,0.68,WeatherDisplay:10.37,2013-04-12 17:20:00,
2013-04-12 13:25:00,69.5,55.0,29.56,NW,313,7.1,7.1,60,0.00,CLR,,0.68,WeatherDisplay:10.37,2013-04-12 17:25:00,
2013-04-12 13:30:00,69.9,53.0,29.56,West,270,9.2,9.2,55,0.00,CLR,,0.68,WeatherDisplay:10.37,2013-04-12 17:30:00,
2013-04-12 13:35:00,70.0,53.6,29.56,NW,323,6.9,6.9,56,0.00,CLR,,0.68,WeatherDisplay:10.37,2013-04-12 17:35:00,
2013-04-12 13:40:00,70.0,54.5,29.56,WNW,295,8.1,8.1,58,0.00,CLR,,0.68,WeatherDisplay:10.37,2013-04-12 17:40:00,
2013-04-12 13:45:00,69.8,53.9,29.56,WNW,291,9.2,9.2,57,0.00,CLR,,0.68,WeatherDisplay:10.37,2013-04-12 17:45:00,
2013-04-12 13:50:00,70.1,54.6,29.56,WSW,258,8.1,8.1,58,0.00,CLR,,0.68,WeatherDisplay:10.37,2013-04-12 17:50:00,
2013-04-12 13:55:00,70.3,52.9,29.56,SW,224,9.2,9.2,54,0.00,CLR,,0.68,WeatherDisplay:10.37,2013-04-12 17:55:00,
2013-04-12 14:00:00,71.1,55.1,29.55,WNW,282,8.1,8.1,57,0.00,CLR,,0.68,WeatherDisplay:10.37,2013-04-12 18:00:00,
2013-04-12 14:06:00,71.8,54.8,29.55,SW,227,8.1,8.1,55,0.00,CLR,,0.68,WeatherDisplay:10.37,2013-04-12 18:06:00,
2013-04-12 14:12:00,72.1,53.0,29.55,West,270,10.4,10.4,51,0.00,CLR,,0.68,WeatherDisplay:10.37,2013-04-12 18:12:00,
2013-04-12 14:17:00,72.0,54.4,29.55,NW,312,9.2,9.2,54,0.00,CLR,,0.68,WeatherDisplay:10.37,2013-04-12 18:17:00,
2013-04-12 14:23:00,72.6,55.0,29.55,SSW,206,9.2,9.2,54,0.00,CLR,,0.68,WeatherDisplay:10.37,2013-04-12 18:23:00,
2013-04-12 14:28:00,72.9,53.7,29.55,West,264,6.9,6.9,51,0.00,CLR,,0.68,WeatherDisplay:10.37,2013-04-12 18:28:00,
2013-04-12 15:26:00,75.2,53.0,29.52,NW,304,10.4,10.4,46,0.00,CLR,,0.68,WeatherDisplay:10.37,2013-04-12 19:26:00,
2013-04-12 15:27:00,75.3,53.1,29.52,West,281,10.4,10.4,46,0.00,CLR,,0.68,WeatherDisplay:10.37,2013-04-12 19:27:00,
2013-04-12 15:32:00,75.1,54.6,29.53,WSW,244,10.4,10.4,49,0.00,CLR,,0.68,WeatherDisplay:10.37,2013-04-12 19:32:00,
2013-04-12 15:37:00,74.9,52.7,29.52,SW,224,11.5,11.5,46,0.00,CLR,,0.68,WeatherDisplay:10.37,2013-04-12 19:37:00,
2013-04-12 15:42:00,74.7,53.7,29.53,West,264,9.2,9.2,48,0.00,CLR,,0.68,WeatherDisplay:10.37,2013-04-12 19:42:00,
2013-04-12 15:47:00,74.9,53.9,29.52,SW,224,8.1,8.1,48,0.00,CLR,,0.68,WeatherDisplay:10.37,2013-04-12 19:47:00,
2013-04-12 15:52:00,75.0,52.2,29.52,WSW,254,10.4,10.4,45,0.00,CLR,,0.68,WeatherDisplay:10.37,2013-04-12 19:52:00,
2013-04-12 15:57:00,74.9,52.7,29.52,North,356,8.1,8.1,46,0.00,CLR,,0.68,WeatherDisplay:10.37,2013-04-12 19:57:00,
2013-04-12 16:02:00,74.9,52.7,29.52,West,261,11.5,11.5,46,0.00,CLR,,0.68,WeatherDisplay:10.37,2013-04-12 20:02:00,
2013-04-12 16:07:00,74.9,51.5,29.52,West,280,6.9,6.9,44,0.00,CLR,,0.68,WeatherDisplay:10.37,2013-04-12 20:07:00,
2013-04-12 16:13:00,74.8,49.5,29.52,WSW,251,9.2,9.2,41,0.00,CLR,,0.68,WeatherDisplay:10.37,2013-04-12 20:13:00,
2013-04-12 16:18:00,74.9,48.9,29.52,West,260,8.1,8.1,40,0.00,CLR,,0.68,WeatherDisplay:10.37,2013-04-12 20:18:00,
2013-04-12 16:23:00,74.6,48.7,29.52,WNW,284,13.4,13.4,40,0.00,CLR,,0.68,WeatherDisplay:10.37,2013-04-12 20:23:00,
2013-04-12 16:28:00,74.4,48.5,29.52,West,278,13.8,13.8,40,0.00,CLR,,0.68,WeatherDisplay:10.37,2013-04-12 20:28:00,
2013-04-12 16:33:00,74.5,49.2,29.52,SSW,205,13.8,13.8,41,0.00,CLR,,0.68,WeatherDisplay:10.37,2013-04-12 20:33:00,
2013-04-12 16:38:00,74.5,48.6,29.52,WSW,237,15.0,15.0,40,0.00,CLR,,0.68,WeatherDisplay:10.37,2013-04-12 20:38:00,
2013-04-12 16:43:00,74.8,48.2,29.52,WSW,247,9.2,9.2,39,0.00,CLR,,0.68,WeatherDisplay:10.37,2013-04-12 20:43:00,
2013-04-12 16:48:00,74.9,48.3,29.52,WNW,291,8.1,8.1,39,0.00,CLR,,0.68,WeatherDisplay:10.37,2013-04-12 20:48:00,
2013-04-12 16:53:00,75.0,47.7,29.52,SW,224,5.8,5.8,38,0.00,CLR,,0.68,WeatherDisplay:10.37,2013-04-12 20:53:00,
2013-04-12 16:58:00,75.2,47.1,29.52,SW,222,8.1,8.1,37,0.00,CLR,,0.68,WeatherDisplay:10.37,2013-04-12 20:58:00,
2013-04-12 17:03:00,75.1,47.0,29.52,West,260,15.0,15.0,37,0.00,CLR,,0.68,WeatherDisplay:10.37,2013-04-12 21:03:00,
2013-04-12 17:08:00,74.8,46.8,29.52,NW,308,9.2,9.2,37,0.00,CLR,,0.68,WeatherDisplay:10.37,2013-04-12 21:08:00,
2013-04-12 17:13:00,74.8,46.1,29.52,WNW,296,6.9,6.9,36,0.00,CLR,,0.68,WeatherDisplay:10.37,2013-04-12 21:13:00,
2013-04-12 17:18:00,74.8,46.1,29.53,WSW,248,13.8,13.8,36,0.00,CLR,,0.68,WeatherDisplay:10.37,2013-04-12 21:18:00,
2013-04-12 17:23:00,74.5,45.8,29.52,SW,224,12.2,12.2,36,0.00,CLR,,0.68,WeatherDisplay:10.37,2013-04-12 21:23:00,
2013-04-12 17:28:00,74.5,45.0,29.53,West,281,11.5,11.5,35,0.00,CLR,,0.68,WeatherDisplay:10.37,2013-04-12 21:28:00,
2013-04-12 17:33:00,74.2,45.5,29.53,West,277,11.5,11.5,36,0.00,CLR,,0.68,WeatherDisplay:10.37,2013-04-12 21:33:00,
2013-04-12 17:38:00,74.0,43.8,29.53,WSW,237,15.0,15.0,34,0.00,CLR,,0.68,WeatherDisplay:10.37,2013-04-12 21:38:00,
2013-04-12 17:43:00,73.8,45.2,29.53,West,267,10.4,10.4,36,0.00,CLR,,0.68,WeatherDisplay:10.37,2013-04-12 21:43:00,
2013-04-12 17:48:00,73.8,45.2,29.53,West,275,10.4,10.4,36,0.00,CLR,,0.68,WeatherDisplay:10.37,2013-04-12 21:48:00,
2013-04-12 17:53:00,73.6,45.7,29.53,WNW,288,11.5,11.5,37,0.00,CLR,,0.68,WeatherDisplay:10.37,2013-04-12 21:53:00,
2013-04-12 17:58:00,73.5,45.6,29.53,SW,222,6.9,6.9,37,0.00,CLR,,0.68,WeatherDisplay:10.37,2013-04-12 21:58:00,
2013-04-12 18:03:00,73.4,45.5,29.54,SW,223,6.9,6.9,37,0.00,CLR,,0.68,WeatherDisplay:10.37,2013-04-12 22:03:00,
2013-04-12 18:08:00,73.2,46.1,29.53,WNW,296,6.9,6.9,38,0.00,CLR,,0.68,WeatherDisplay:10.37,2013-04-12 22:08:00,
2013-04-12 18:13:00,73.0,44.5,29.53,NW,308,10.4,10.4,36,0.00,CLR,,0.68,WeatherDisplay:10.37,2013-04-12 22:13:00,
2013-04-12 18:18:00,72.9,44.4,29.54,SW,229,6.9,6.9,36,0.00,CLR,,0.68,WeatherDisplay:10.37,2013-04-12 22:18:00,
2013-04-12 18:23:00,72.7,44.2,29.54,WNW,288,5.6,5.6,36,0.00,CLR,,0.68,WeatherDisplay:10.37,2013-04-12 22:23:00,
2013-04-12 18:28:00,72.2,44.5,29.55,NNW,332,9.2,9.2,37,0.00,CLR,,0.68,WeatherDisplay:10.37,2013-04-12 22:28:00,
2013-04-12 18:33:00,72.1,44.4,29.55,WNW,295,4.6,4.6,37,0.00,CLR,,0.68,WeatherDisplay:10.37,2013-04-12 22:33:00,
2013-04-12 18:38:00,71.7,43.3,29.55,WSW,251,9.2,9.2,36,0.00,CLR,,0.68,WeatherDisplay:10.37,2013-04-12 22:38:00,
2013-04-12 18:43:00,71.6,43.9,29.55,WNW,301,8.1,8.1,37,0.00,CLR,,0.68,WeatherDisplay:10.37,2013-04-12 22:43:00,
2013-04-12 18:48:00,71.5,44.5,29.55,West,261,8.1,8.1,38,0.00,CLR,,0.68,WeatherDisplay:10.37,2013-04-12 22:48:00,
2013-04-12 18:53:00,71.2,45.0,29.55,SW,215,6.9,6.9,39,0.00,CLR,,0.68,WeatherDisplay:10.37,2013-04-12 22:53:00,
2013-04-12 18:58:00,70.9,44.7,29.55,West,264,8.1,8.1,39,0.00,CLR,,0.68,WeatherDisplay:10.37,2013-04-12 22:58:00,
2013-04-12 19:03:00,70.6,44.4,29.55,West,268,8.1,8.1,39,0.00,CLR,,0.68,WeatherDisplay:10.37,2013-04-12 23:03:00,
2013-04-12 19:08:00,70.5,45.7,29.55,West,271,6.9,6.9,41,0.00,CLR,,0.68,WeatherDisplay:10.37,2013-04-12 23:08:00,
2013-04-12 19:13:00,70.2,45.4,29.55,West,261,8.1,8.1,41,0.00,CLR,,0.68,WeatherDisplay:10.37,2013-04-12 23:13:00,
2013-04-12 19:18:00,69.8,45.7,29.56,SW,229,6.9,6.9,42,0.00,CLR,,0.68,WeatherDisplay:10.37,2013-04-12 23:18:00,
2013-04-12 19:23:00,69.2,46.4,29.56,West,270,5.8,5.8,44,0.00,CLR,,0.68,WeatherDisplay:10.37,2013-04-12 23:23:00,
2013-04-12 19:28:00,68.9,46.7,29.56,WSW,248,5.8,5.8,45,0.00,CLR,,0.68,WeatherDisplay:10.37,2013-04-12 23:28:00,
2013-04-12 19:33:00,68.5,46.3,29.56,WNW,294,4.6,4.6,45,0.00,CLR,,0.68,WeatherDisplay:10.37,2013-04-12 23:33:00,
2013-04-12 19:38:00,68.0,46.4,29.57,West,278,3.5,3.5,46,0.00,CLR,,0.68,WeatherDisplay:10.37,2013-04-12 23:38:00,
2013-04-12 19:44:00,67.4,46.5,29.57,WNW,288,4.6,4.6,47,0.00,CLR,,0.68,WeatherDisplay:10.37,2013-04-12 23:44:00,
2013-04-12 19:49:00,67.2,46.8,29.57,West,261,1.2,1.2,48,0.00,CLR,,0.68,WeatherDisplay:10.37,2013-04-12 23:49:00,
2013-04-12 19:54:00,66.7,46.9,29.57,West,261,0.0,0.0,49,0.00,CLR,,0.68,WeatherDisplay:10.37,2013-04-12 23:54:00,
2013-04-12 19:59:00,66.0,46.8,29.57,West,275,0.0,0.0,50,0.00,CLR,,0.68,WeatherDisplay:10.37,2013-04-12 23:59:00,
2013-04-12 20:04:00,65.5,46.4,29.57,West,272,2.3,2.3,50,0.00,CLR,,0.68,WeatherDisplay:10.37,2013-04-13 00:04:00,
2013-04-12 20:09:00,65.0,46.4,29.58,NW,319,8.5,8.5,51,0.00,CLR,,0.68,WeatherDisplay:10.37,2013-04-13 00:09:00,
2013-04-12 20:14:00,65.4,41.7,29.58,NW,311,10.9,10.9,42,0.00,CLR,,0.68,WeatherDisplay:10.37,2013-04-13 00:14:00,
2013-04-12 20:19:00,66.2,41.2,29.59,NNW,329,8.1,8.1,40,0.00,CLR,,0.68,WeatherDisplay:10.37,2013-04-13 00:19:00,
2013-04-12 20:24:00,66.5,39.4,29.59,North,357,10.4,10.4,37,0.00,CLR,,0.68,WeatherDisplay:10.37,2013-04-13 00:24:00,
2013-04-12 20:29:00,66.1,39.1,29.60,North,0,18.4,18.4,37,0.00,CLR,,0.68,WeatherDisplay:10.37,2013-04-13 00:29:00,
2013-04-12 20:34:00,65.8,38.8,29.60,NW,320,16.1,16.1,37,0.00,CLR,,0.68,WeatherDisplay:10.37,2013-04-13 00:34:00,
2013-04-12 20:39:00,65.4,38.4,29.60,NW,315,16.5,16.5,37,0.00,CLR,,0.68,WeatherDisplay:10.37,2013-04-13 00:39:00,
2013-04-12 20:44:00,65.4,39.1,29.61,WNW,296,16.1,16.1,38,0.00,CLR,,0.68,WeatherDisplay:10.37,2013-04-13 00:44:00,
2013-04-12 20:49:00,65.3,39.0,29.61,North,360,11.5,11.5,38,0.00,CLR,,0.68,WeatherDisplay:10.37,2013-04-13 00:49:00,
2013-04-12 20:54:00,65.1,38.8,29.61,NW,320,12.7,12.7,38,0.00,CLR,,0.68,WeatherDisplay:10.37,2013-04-13 00:54:00,
2013-04-12 20:59:00,64.8,39.9,29.62,NNW,340,7.0,7.0,40,0.00,CLR,,0.68,WeatherDisplay:10.37,2013-04-13 00:59:00,
2013-04-12 21:04:00,64.4,40.2,29.62,North,8,5.8,5.8,41,0.00,CLR,,0.68,WeatherDisplay:10.37,2013-04-13 01:04:00,
2013-04-12 21:09:00,64.3,41.9,29.63,North,360,11.5,11.5,44,0.00,CLR,,0.68,WeatherDisplay:10.37,2013-04-13 01:09:00,
2013-04-12 21:14:00,63.8,42.6,29.63,NNW,342,10.4,10.4,46,0.00,CLR,,0.68,WeatherDisplay:10.37,2013-04-13 01:14:00,
2013-04-12 21:19:00,63.3,42.7,29.64,North,360,8.1,8.1,47,0.00,CLR,,0.68,WeatherDisplay:10.37,2013-04-13 01:19:00,
2013-04-12 21:24:00,62.9,43.4,29.64,North,360,13.8,13.8,49,0.00,CLR,,0.68,WeatherDisplay:10.37,2013-04-13 01:24:00,
2013-04-12 21:29:00,62.9,42.9,29.64,NNE,16,12.7,12.7,48,0.00,CLR,,0.68,WeatherDisplay:10.37,2013-04-13 01:29:00,
2013-04-12 21:34:00,62.3,42.9,29.64,NW,322,12.7,12.7,49,0.00,CLR,,0.68,WeatherDisplay:10.37,2013-04-13 01:34:00,
2013-04-12 21:39:00,62.1,43.2,29.65,North,353,15.0,15.0,50,0.00,CLR,,0.68,WeatherDisplay:10.37,2013-04-13 01:39:00,
2013-04-12 21:44:00,61.7,42.9,29.65,North,357,12.7,12.7,50,0.00,CLR,,0.68,WeatherDisplay:10.37,2013-04-13 01:44:00,
2013-04-12 21:49:00,61.7,42.9,29.65,North,360,11.5,11.5,50,0.00,CLR,,0.68,WeatherDisplay:10.37,2013-04-13 01:49:00,
2013-04-12 21:54:00,61.4,42.6,29.66,North,360,9.2,9.2,50,0.00,CLR,,0.68,WeatherDisplay:10.37,2013-04-13 01:54:00,
2013-04-12 21:59:00,60.8,42.0,29.66,NNW,329,10.4,10.4,50,0.00,CLR,,0.68,WeatherDisplay:10.37,2013-04-13 01:59:00,
2013-04-12 22:04:00,60.6,41.3,29.67,NNW,329,15.0,15.0,49,0.00,CLR,,0.68,WeatherDisplay:10.37,2013-04-13 02:04:00,
2013-04-12 22:09:00,60.5,41.2,29.67,NW,315,11.5,11.5,49,0.00,CLR,,0.68,WeatherDisplay:10.37,2013-04-13 02:09:00,
2013-04-12 22:14:00,60.3,41.0,29.67,North,360,11.5,11.5,49,0.00,CLR,,0.68,WeatherDisplay:10.37,2013-04-13 02:14:00,
2013-04-12 22:19:00,60.0,40.8,29.67,North,360,13.8,13.8,49,0.00,CLR,,0.68,WeatherDisplay:10.37,2013-04-13 02:19:00,
2013-04-12 22:24:00,59.7,41.0,29.68,North,350,10.4,10.4,50,0.00,CLR,,0.68,WeatherDisplay:10.37,2013-04-13 02:24:00,
2013-04-12 22:29:00,59.3,40.7,29.68,North,353,11.5,11.5,50,0.00,CLR,,0.68,WeatherDisplay:10.37,2013-04-13 02:29:00,
2013-04-12 22:34:00,59.1,40.5,29.69,NW,320,10.4,10.4,50,0.00,CLR,,0.68,WeatherDisplay:10.37,2013-04-13 02:34:00,
2013-04-12 22:39:00,58.8,40.2,29.69,NW,325,13.8,13.8,50,0.00,CLR,,0.68,WeatherDisplay:10.37,2013-04-13 02:39:00,
2013-04-12 22:44:00,58.9,39.8,29.70,NNW,328,11.5,11.5,49,0.00,CLR,,0.68,WeatherDisplay:10.37,2013-04-13 02:44:00,
2013-04-12 22:49:00,58.9,39.8,29.70,North,1,11.5,11.5,49,0.00,CLR,,0.68,WeatherDisplay:10.37,2013-04-13 02:49:00,
2013-04-12 22:54:00,58.5,38.9,29.71,North,350,11.5,11.5,48,0.00,CLR,,0.68,WeatherDisplay:10.37,2013-04-13 02:54:00,
2013-04-12 22:59:00,58.6,39.5,29.71,North,359,6.9,6.9,49,0.00,CLR,,0.68,WeatherDisplay:10.37,2013-04-13 02:59:00,
2013-04-12 23:04:00,58.0,38.9,29.72,North,360,7.8,7.8,49,0.00,CLR,,0.68,WeatherDisplay:10.37,2013-04-13 03:04:00,
2013-04-12 23:09:00,57.8,38.8,29.72,North,360,13.3,13.3,49,0.00,CLR,,0.68,WeatherDisplay:10.37,2013-04-13 03:09:00,
2013-04-12 23:14:00,57.8,39.3,29.72,North,360,13.8,13.8,50,0.00,CLR,,0.68,WeatherDisplay:10.37,2013-04-13 03:14:00,
2013-04-12 23:19:00,56.9,39.4,29.72,NW,304,17.3,17.3,52,0.00,CLR,,0.68,WeatherDisplay:10.37,2013-04-13 03:19:00,
2013-04-12 23:24:00,56.4,39.0,29.72,North,360,9.2,9.2,52,0.00,CLR,,0.68,WeatherDisplay:10.37,2013-04-13 03:24:00,
2013-04-12 23:29:00,56.2,39.3,29.73,North,360,13.8,13.8,53,0.00,CLR,,0.68,WeatherDisplay:10.37,2013-04-13 03:29:00,
2013-04-12 23:34:00,56.0,39.6,29.73,NNW,337,10.4,10.4,54,0.00,CLR,,0.68,WeatherDisplay:10.37,2013-04-13 03:34:00,
2013-04-12 23:39:00,55.7,40.2,29.74,North,360,8.1,8.1,56,0.00,CLR,,0.68,WeatherDisplay:10.37,2013-04-13 03:39:00,
2013-04-12 23:44:00,55.3,39.9,29.74,NNW,342,9.2,9.2,56,0.00,CLR,,0.68,WeatherDisplay:10.37,2013-04-13 03:44:00,
2013-04-12 23:49:00,54.5,40.0,29.75,NNE,23,10.5,10.5,58,0.00,CLR,,0.68,WeatherDisplay:10.37,2013-04-13 03:49:00,
2013-04-12 23:54:00,54.2,38.8,29.75,NNW,346,9.2,9.2,56,0.00,CLR,,0.68,WeatherDisplay:10.37,2013-04-13 03:54:00,
2013-04-12 23:59:00,53.8,38.5,29.75,NNW,346,12.7,12.7,56,0.00,CLR,,0.68,WeatherDisplay:10.37,2013-04-13 03:59:00,